createdAt,value
2022-10-13T00:00:50.836Z,9.20
2022-10-13T00:03:18.933Z,9.20
2022-10-13T00:05:48.645Z,9.20
2022-10-13T00:08:19.933Z,9.10
2022-10-13T00:10:49.289Z,9.10
2022-10-13T00:13:20.237Z,9.10
2022-10-13T00:15:48.521Z,9.10
2022-10-13T00:18:16.742Z,9.00
2022-10-13T00:20:46.462Z,9.00
2022-10-13T00:23:14.089Z,9.00
2022-10-13T00:25:44.584Z,8.90
2022-10-13T00:28:14.535Z,8.90
2022-10-13T00:30:41.754Z,8.90
2022-10-13T00:33:10.893Z,8.90
2022-10-13T00:35:43.293Z,9.00
2022-10-13T00:38:11.810Z,9.00
2022-10-13T00:40:49.812Z,8.90
2022-10-13T00:43:19.643Z,8.80
2022-10-13T00:45:49.987Z,8.70
2022-10-13T00:48:20.979Z,8.60
2022-10-13T00:50:49.045Z,8.50
2022-10-13T00:53:18.287Z,8.60
2022-10-13T00:55:47.521Z,8.70
2022-10-13T00:58:16.868Z,8.70
2022-10-13T01:00:47.368Z,8.70
2022-10-13T01:03:19.514Z,8.60
2022-10-13T01:05:48.069Z,8.70
2022-10-13T01:08:16.520Z,8.70
2022-10-13T01:11:23.419Z,8.70
2022-10-13T01:13:56.947Z,8.70
2022-10-13T01:16:29.599Z,8.70
2022-10-13T01:19:32.341Z,8.70
2022-10-13T01:22:03.940Z,8.60
2022-10-13T01:24:41.898Z,8.60
2022-10-13T01:27:44.914Z,8.60
2022-10-13T01:30:23.164Z,8.60
2022-10-13T01:33:13.494Z,8.60
2022-10-13T01:35:40.708Z,8.70
2022-10-13T01:38:11.981Z,8.70
2022-10-13T01:40:53.047Z,8.70
2022-10-13T01:43:27.175Z,8.70
2022-10-13T01:46:02.215Z,8.70
2022-10-13T01:48:30.073Z,8.70
2022-10-13T01:50:59.956Z,8.80
2022-10-13T01:53:29.087Z,8.80
2022-10-13T01:56:00.127Z,8.80
2022-10-13T01:58:32.729Z,8.80
2022-10-13T02:01:14.443Z,8.90
2022-10-13T02:03:49.119Z,8.90
2022-10-13T02:06:35.997Z,8.90
2022-10-13T02:09:06.396Z,8.80
2022-10-13T02:11:33.805Z,8.80
2022-10-13T02:14:09.807Z,8.70
2022-10-13T02:16:41.154Z,8.70
2022-10-13T02:19:11.696Z,8.70
2022-10-13T02:21:39.553Z,8.60
2022-10-13T02:24:07.942Z,8.60
2022-10-13T02:26:36.225Z,8.60
2022-10-13T02:29:16.012Z,8.70
2022-10-13T02:31:44.058Z,8.70
2022-10-13T02:34:11.912Z,8.70
2022-10-13T02:36:39.730Z,8.70
2022-10-13T02:39:08.554Z,8.70
2022-10-13T02:41:35.657Z,8.80
2022-10-13T02:44:02.931Z,8.80
2022-10-13T02:46:34.953Z,8.80
2022-10-13T02:49:02.062Z,8.90
2022-10-13T02:51:29.932Z,8.90
2022-10-13T02:53:57.035Z,8.90
2022-10-13T02:56:24.129Z,9.00
2022-10-13T02:58:51.171Z,8.90
2022-10-13T03:01:18.300Z,8.90
2022-10-13T03:03:45.310Z,8.90
2022-10-13T03:06:12.503Z,8.90
2022-10-13T03:08:39.644Z,8.90
2022-10-13T03:11:06.703Z,9.00
2022-10-13T03:13:33.948Z,8.90
2022-10-13T03:16:07.164Z,9.00
2022-10-13T03:18:35.005Z,9.00
2022-10-13T03:21:05.537Z,9.00
2022-10-13T03:23:34.425Z,9.00
2022-10-13T03:26:02.164Z,9.00
2022-10-13T03:28:29.340Z,9.00
2022-10-13T03:31:12.887Z,9.00
2022-10-13T03:33:40.690Z,8.90
2022-10-13T03:36:08.031Z,8.90
2022-10-13T03:38:36.072Z,8.90
2022-10-13T03:41:13.886Z,8.90
2022-10-13T03:43:42.206Z,8.90
2022-10-13T03:46:11.309Z,8.90
2022-10-13T03:48:39.010Z,8.90
2022-10-13T03:51:13.817Z,9.00
2022-10-13T03:53:40.857Z,9.00
2022-10-13T03:56:08.094Z,9.10
2022-10-13T03:58:43.060Z,9.10
2022-10-13T04:01:13.783Z,9.20
2022-10-13T04:03:42.749Z,9.20
2022-10-13T04:06:10.131Z,9.20
2022-10-13T04:08:37.413Z,9.20
2022-10-13T04:11:08.806Z,9.20
2022-10-13T04:13:38.757Z,9.20
2022-10-13T04:16:15.703Z,9.20
2022-10-13T04:18:44.919Z,9.20
2022-10-13T04:21:14.779Z,9.20
2022-10-13T04:23:42.338Z,9.20
2022-10-13T04:26:19.489Z,9.20
2022-10-13T04:28:48.477Z,9.20
2022-10-13T04:31:16.061Z,9.20
2022-10-13T04:33:44.382Z,9.20
2022-10-13T04:36:13.038Z,9.20
2022-10-13T04:38:41.115Z,9.20
2022-10-13T04:41:09.451Z,9.20
2022-10-13T04:43:36.919Z,9.20
2022-10-13T04:46:07.069Z,9.30
2022-10-13T04:48:34.465Z,9.30
2022-10-13T04:51:03.794Z,9.30
2022-10-13T04:53:31.588Z,9.30
2022-10-13T04:56:03.848Z,9.30
2022-10-13T04:58:31.450Z,9.30
2022-10-13T05:01:01.938Z,9.40
2022-10-13T05:03:29.443Z,9.40
2022-10-13T05:05:56.964Z,9.30
2022-10-13T05:08:25.060Z,9.30
2022-10-13T05:10:58.424Z,9.40
2022-10-13T05:13:27.387Z,9.40
2022-10-13T05:15:58.002Z,9.40
2022-10-13T05:18:25.253Z,9.40
2022-10-13T05:20:52.291Z,9.40
2022-10-13T05:23:19.328Z,9.30
2022-10-13T05:25:46.540Z,9.30
2022-10-13T05:28:14.997Z,9.30
2022-10-13T05:30:42.144Z,9.30
2022-10-13T05:33:09.484Z,9.30
2022-10-13T05:35:36.647Z,9.20
2022-10-13T05:38:03.737Z,9.20
2022-10-13T05:40:30.968Z,9.20
2022-10-13T05:43:00.725Z,9.20
2022-10-13T05:45:32.428Z,9.20
2022-10-13T05:47:59.474Z,9.20
2022-10-13T05:50:26.814Z,9.30
2022-10-13T05:52:54.202Z,9.30
2022-10-13T05:55:21.279Z,9.30
2022-10-13T05:57:51.698Z,9.40
2022-10-13T06:00:20.332Z,9.40
2022-10-13T06:02:56.594Z,9.30
2022-10-13T06:05:26.663Z,9.30
2022-10-13T06:07:56.280Z,9.30
2022-10-13T06:10:24.232Z,9.40
2022-10-13T06:12:51.577Z,9.40
2022-10-13T06:15:23.303Z,9.30
2022-10-13T06:17:52.816Z,9.30
2022-10-13T06:20:20.526Z,9.40
2022-10-13T06:22:50.107Z,9.50
2022-10-13T06:25:17.386Z,9.60
2022-10-13T06:27:44.793Z,9.60
2022-10-13T06:30:12.343Z,9.60
2022-10-13T06:32:39.652Z,9.70
2022-10-13T06:35:07.347Z,9.70
2022-10-13T06:37:35.231Z,9.80
2022-10-13T06:40:02.879Z,9.80
2022-10-13T06:42:31.890Z,9.90
2022-10-13T06:45:14.847Z,10.10
2022-10-13T06:47:42.057Z,10.10
2022-10-13T06:50:09.585Z,10.20
2022-10-13T06:52:37.032Z,10.30
2022-10-13T06:55:05.032Z,10.30
2022-10-13T06:57:32.634Z,10.40
2022-10-13T07:00:02.105Z,10.30
2022-10-13T07:02:29.190Z,10.30
2022-10-13T07:04:56.295Z,10.50
2022-10-13T07:07:23.426Z,10.60
2022-10-13T07:09:50.540Z,10.70
2022-10-13T07:12:18.146Z,10.80
2022-10-13T07:14:45.540Z,10.90
2022-10-13T07:17:12.546Z,11.00
2022-10-13T07:19:39.735Z,11.00
2022-10-13T07:22:07.015Z,11.20
2022-10-13T07:24:34.071Z,11.20
2022-10-13T07:27:06.747Z,11.30
2022-10-13T07:29:35.118Z,11.30
2022-10-13T07:32:02.074Z,11.40
2022-10-13T07:34:29.148Z,11.50
2022-10-13T07:36:56.877Z,11.60
2022-10-13T07:39:23.906Z,11.70
2022-10-13T07:41:52.499Z,11.80
2022-10-13T07:44:19.767Z,11.80
2022-10-13T07:46:46.850Z,11.80
2022-10-13T07:49:16.234Z,11.90
2022-10-13T07:51:44.586Z,11.90
2022-10-13T07:54:11.790Z,12.10
2022-10-13T07:56:39.681Z,12.10
2022-10-13T07:59:07.715Z,12.20
2022-10-13T08:01:34.865Z,12.30
2022-10-13T08:04:02.644Z,12.40
2022-10-13T08:06:29.972Z,12.50
2022-10-13T08:08:58.352Z,12.70
2022-10-13T08:11:25.832Z,12.70
2022-10-13T08:13:53.245Z,12.80
2022-10-13T08:16:21.849Z,12.80
2022-10-13T08:18:49.506Z,12.90
2022-10-13T08:24:10.939Z,13.10
2022-10-13T08:26:38.327Z,13.20
2022-10-13T08:29:22.879Z,13.40
2022-10-13T08:31:53.087Z,13.50
2022-10-13T08:34:22.075Z,13.60
2022-10-13T08:36:52.911Z,13.70
2022-10-13T08:39:21.078Z,13.50
2022-10-13T08:41:48.854Z,13.70
2022-10-13T08:47:31.768Z,13.80
2022-10-13T08:50:04.256Z,13.80
2022-10-13T08:52:47.142Z,13.70
2022-10-13T08:55:23.411Z,13.70
2022-10-13T08:57:51.158Z,13.80
2022-10-13T09:00:20.934Z,13.80
2022-10-13T09:02:50.569Z,13.70
2022-10-13T09:05:32.778Z,13.60
2022-10-13T09:08:11.586Z,13.80
2022-10-13T09:10:48.110Z,13.90
2022-10-13T09:13:19.524Z,14.30
2022-10-13T09:15:50.370Z,14.60
2022-10-13T09:18:17.869Z,15.00
2022-10-13T09:20:44.954Z,15.30
2022-10-13T09:23:27.992Z,15.60
2022-10-13T09:25:56.277Z,15.90
2022-10-13T09:28:28.003Z,16.10
2022-10-13T09:31:15.133Z,16.30
2022-10-13T09:33:42.548Z,16.60
2022-10-13T09:36:12.796Z,16.70
2022-10-13T09:38:42.970Z,16.80
2022-10-13T09:41:10.018Z,16.90
2022-10-13T09:43:42.514Z,16.80
2022-10-13T09:46:38.691Z,16.80
2022-10-13T09:49:24.893Z,16.90
2022-10-13T09:51:52.593Z,16.80
2022-10-13T09:54:33.705Z,16.60
2022-10-13T09:57:41.382Z,16.70
2022-10-13T10:00:27.129Z,16.80
2022-10-13T10:02:57.920Z,17.00
2022-10-13T10:05:34.523Z,17.10
2022-10-13T10:08:12.469Z,17.20
2022-10-13T10:10:41.183Z,17.50
2022-10-13T10:13:12.576Z,18.00
2022-10-13T10:15:48.354Z,18.00
2022-10-13T10:18:22.849Z,18.10
2022-10-13T10:21:17.376Z,17.80
2022-10-13T10:24:04.141Z,17.80
2022-10-13T10:26:35.757Z,18.30
2022-10-13T10:29:15.239Z,18.70
2022-10-13T10:31:58.119Z,19.20
2022-10-13T10:34:31.584Z,19.10
2022-10-13T10:37:06.365Z,18.80
2022-10-13T10:40:01.077Z,18.80
2022-10-13T10:42:57.049Z,18.90
2022-10-13T10:45:28.234Z,18.40
2022-10-13T10:48:00.500Z,18.40
2022-10-13T10:50:30.975Z,18.70
2022-10-13T10:53:27.499Z,18.70
2022-10-13T10:56:02.939Z,19.10
2022-10-13T10:58:54.931Z,19.50
2022-10-13T11:01:32.179Z,19.70
2022-10-13T11:04:17.166Z,19.90
2022-10-13T11:06:44.255Z,19.50
2022-10-13T11:09:11.951Z,18.90
2022-10-13T11:11:41.459Z,18.60
2022-10-13T11:14:12.381Z,18.50
2022-10-13T11:17:11.015Z,18.50
2022-10-13T11:19:40.284Z,18.60
2022-10-13T11:22:07.259Z,19.20
2022-10-13T11:24:38.826Z,19.70
2022-10-13T11:27:10.748Z,19.90
2022-10-13T11:29:53.837Z,20.10
2022-10-13T11:32:30.891Z,20.00
2022-10-13T11:35:06.453Z,20.30
2022-10-13T11:38:00.870Z,20.20
2022-10-13T11:40:54.672Z,20.40
2022-10-13T11:43:35.350Z,20.60
2022-10-13T11:46:15.032Z,20.80
2022-10-13T11:48:50.684Z,20.40
2022-10-13T11:51:26.411Z,20.50
2022-10-13T11:54:33.264Z,20.60
2022-10-13T11:57:00.760Z,20.40
2022-10-13T11:59:31.362Z,20.40
2022-10-13T12:02:18.944Z,20.30
2022-10-13T12:05:02.410Z,20.10
2022-10-13T12:07:35.273Z,20.10
2022-10-13T12:10:06.329Z,20.40
2022-10-13T12:12:34.448Z,20.40
2022-10-13T12:15:05.947Z,20.40
2022-10-13T12:17:39.065Z,20.50
2022-10-13T12:20:28.225Z,20.60
2022-10-13T12:22:56.269Z,20.40
2022-10-13T12:25:26.970Z,20.30
2022-10-13T12:28:00.506Z,20.20
2022-10-13T12:30:29.676Z,20.20
2022-10-13T12:32:59.690Z,20.30
2022-10-13T12:35:30.945Z,20.50
2022-10-13T12:38:01.481Z,20.30
2022-10-13T12:40:29.797Z,20.20
2022-10-13T12:42:57.512Z,20.10
2022-10-13T12:45:28.534Z,20.00
2022-10-13T12:47:55.832Z,19.90
2022-10-13T12:50:35.439Z,19.90
2022-10-13T12:53:12.230Z,19.90
2022-10-13T12:56:00.548Z,19.70
2022-10-13T12:58:30.256Z,19.80
2022-10-13T13:01:18.169Z,19.80
2022-10-13T13:03:45.395Z,19.60
2022-10-13T13:06:13.421Z,19.60
2022-10-13T13:08:42.099Z,19.60
2022-10-13T13:11:38.062Z,19.60
2022-10-13T13:14:35.514Z,19.50
2022-10-13T13:17:38.580Z,19.30
2022-10-13T13:20:21.585Z,19.30
2022-10-13T13:22:50.804Z,19.20
2022-10-13T13:25:17.892Z,19.10
2022-10-13T13:27:45.706Z,19.20
2022-10-13T13:30:19.449Z,19.40
2022-10-13T13:32:46.900Z,19.50
2022-10-13T13:35:14.301Z,19.60
2022-10-13T13:37:47.180Z,19.70
2022-10-13T13:40:18.009Z,19.60
2022-10-13T13:42:45.301Z,19.50
2022-10-13T13:45:13.762Z,19.50
2022-10-13T13:47:41.071Z,19.40
2022-10-13T13:50:26.267Z,19.30
2022-10-13T13:52:56.921Z,19.30
2022-10-13T13:55:24.508Z,19.20
2022-10-13T13:57:51.774Z,19.30
2022-10-13T14:00:19.659Z,19.10
2022-10-13T14:02:50.949Z,19.00
2022-10-13T14:05:18.076Z,19.00
2022-10-13T14:07:45.210Z,19.00
2022-10-13T14:10:12.394Z,19.00
2022-10-13T14:12:40.497Z,19.00
2022-10-13T14:15:08.504Z,19.00
2022-10-13T14:17:35.732Z,18.90
2022-10-13T14:20:02.889Z,19.00
2022-10-13T14:22:30.026Z,19.00
2022-10-13T14:24:57.001Z,18.90
2022-10-13T14:27:24.293Z,18.90
2022-10-13T14:29:52.847Z,18.80
2022-10-13T14:32:20.395Z,18.80
2022-10-13T14:34:47.628Z,18.80
2022-10-13T14:37:14.700Z,18.70
2022-10-13T14:39:41.868Z,18.70
2022-10-13T14:42:09.005Z,18.60
2022-10-13T14:44:36.024Z,18.50
2022-10-13T14:47:03.324Z,18.50
2022-10-13T14:49:30.496Z,18.40
2022-10-13T14:51:57.511Z,18.40
2022-10-13T14:54:26.424Z,18.40
2022-10-13T14:56:53.539Z,18.30
2022-10-13T14:59:20.721Z,18.20
2022-10-13T15:01:49.310Z,18.10
2022-10-13T15:04:16.399Z,18.00
2022-10-13T15:06:43.544Z,18.00
2022-10-13T15:09:12.016Z,17.90
2022-10-13T15:11:39.520Z,17.90
2022-10-13T15:14:07.655Z,17.90
2022-10-13T15:16:37.033Z,17.80
2022-10-13T15:19:05.171Z,17.70
2022-10-13T15:21:32.332Z,17.60
2022-10-13T15:24:01.686Z,17.50
2022-10-13T15:26:29.141Z,17.50
2022-10-13T15:28:56.275Z,17.40
2022-10-13T15:31:24.622Z,17.40
2022-10-13T15:33:54.127Z,17.30
2022-10-13T15:36:23.713Z,17.20
2022-10-13T15:38:51.698Z,17.10
2022-10-13T15:41:23.248Z,17.10
2022-10-13T15:43:52.007Z,17.00
2022-10-13T15:46:24.214Z,16.80
2022-10-13T15:48:53.418Z,16.80
2022-10-13T15:51:22.684Z,16.70
2022-10-13T15:53:50.181Z,16.50
2022-10-13T15:56:17.917Z,16.40
2022-10-13T15:58:45.739Z,16.30
2022-10-13T16:01:14.496Z,16.10
2022-10-13T16:03:43.217Z,16.00
2022-10-13T16:06:12.546Z,15.80
2022-10-13T16:08:41.060Z,15.70
2022-10-13T16:11:11.727Z,15.60
2022-10-13T16:13:39.691Z,15.50
2022-10-13T16:16:07.832Z,15.40
2022-10-13T16:18:37.424Z,15.30
2022-10-13T16:21:21.802Z,15.20
2022-10-13T16:23:49.422Z,15.10
2022-10-13T16:26:18.171Z,15.00
2022-10-13T16:28:46.659Z,14.80
2022-10-13T16:31:15.469Z,14.80
2022-10-13T16:33:43.918Z,14.70
2022-10-13T16:36:15.766Z,14.70
2022-10-13T16:38:44.431Z,14.60
2022-10-13T16:41:14.656Z,14.60
2022-10-13T16:43:42.759Z,14.50
2022-10-13T16:46:13.467Z,14.40
2022-10-13T16:48:41.927Z,14.30
2022-10-13T16:51:13.579Z,14.20
2022-10-13T16:53:41.099Z,14.10
2022-10-13T16:56:09.069Z,14.10
2022-10-13T16:58:36.420Z,14.00
2022-10-13T17:01:06.619Z,13.90
2022-10-13T17:03:33.777Z,13.80
2022-10-13T17:06:00.965Z,13.70
2022-10-13T17:08:28.321Z,13.70
2022-10-13T17:10:58.247Z,13.60
2022-10-13T17:13:26.006Z,13.60
2022-10-13T17:15:54.638Z,13.50
2022-10-13T17:18:22.098Z,13.50
2022-10-13T17:20:56.690Z,13.40
2022-10-13T17:23:24.487Z,13.30
2022-10-13T17:25:52.540Z,13.30
2022-10-13T17:28:20.830Z,13.20
2022-10-13T17:31:06.686Z,13.20
2022-10-13T17:33:35.442Z,13.10
2022-10-13T17:36:07.729Z,13.10
2022-10-13T17:38:35.330Z,13.00
2022-10-13T17:41:05.315Z,13.00
2022-10-13T17:43:34.722Z,12.90
2022-10-13T17:46:36.921Z,12.90
2022-10-13T17:49:14.425Z,12.80
2022-10-13T17:51:45.563Z,12.70
2022-10-13T17:54:16.026Z,12.70
2022-10-13T17:56:51.077Z,12.70
2022-10-13T17:59:18.429Z,12.70
2022-10-13T18:01:46.169Z,12.60
2022-10-13T18:04:17.347Z,12.60
2022-10-13T18:06:45.414Z,12.60
2022-10-13T18:09:17.960Z,12.60
2022-10-13T18:12:11.251Z,12.50
2022-10-13T18:15:11.233Z,12.50
2022-10-13T18:17:43.231Z,12.50
2022-10-13T18:20:11.282Z,12.40
2022-10-13T18:22:38.394Z,12.40
2022-10-13T18:25:06.327Z,12.30
2022-10-13T18:27:33.635Z,12.30
2022-10-13T18:30:00.772Z,12.30
2022-10-13T18:32:29.258Z,12.30
2022-10-13T18:34:57.379Z,12.30
2022-10-13T18:37:24.520Z,12.20
2022-10-13T18:39:52.370Z,12.20
2022-10-13T18:42:20.739Z,12.20
2022-10-13T18:44:48.406Z,12.10
2022-10-13T18:47:15.503Z,12.10
2022-10-13T18:49:42.614Z,12.10
2022-10-13T18:52:09.715Z,12.10
2022-10-13T18:54:39.683Z,12.10
2022-10-13T18:57:06.791Z,12.10
2022-10-13T18:59:42.442Z,12.10
2022-10-13T19:02:14.259Z,12.20
2022-10-13T19:04:41.607Z,12.20
2022-10-13T19:07:08.769Z,12.20
2022-10-13T19:09:35.950Z,12.20
2022-10-13T19:12:02.987Z,12.20
2022-10-13T19:14:30.865Z,12.20
2022-10-13T19:17:01.734Z,12.20
2022-10-13T19:19:34.321Z,12.20
2022-10-13T19:22:02.780Z,12.20
2022-10-13T19:24:31.892Z,12.30
2022-10-13T19:27:05.889Z,12.20
2022-10-13T19:29:36.059Z,12.20
2022-10-13T19:32:05.532Z,12.20
2022-10-13T19:34:33.395Z,12.20
2022-10-13T19:37:03.139Z,12.20
2022-10-13T19:39:30.261Z,12.00
2022-10-13T19:42:00.348Z,12.00
2022-10-13T19:44:27.559Z,11.90
2022-10-13T19:46:55.468Z,11.90
2022-10-13T19:49:26.218Z,11.90
2022-10-13T19:51:54.130Z,11.80
2022-10-13T19:54:22.366Z,11.80
2022-10-13T19:56:50.729Z,11.80
2022-10-13T19:59:18.673Z,11.80
2022-10-13T20:01:46.246Z,11.80
2022-10-13T20:04:14.931Z,11.80
2022-10-13T20:06:44.463Z,11.70
2022-10-13T20:09:12.233Z,11.60
2022-10-13T20:11:39.363Z,11.50
2022-10-13T20:14:06.650Z,11.50
2022-10-13T20:16:33.835Z,11.50
2022-10-13T20:19:01.701Z,11.40
2022-10-13T20:21:29.629Z,11.40
2022-10-13T20:23:57.585Z,11.30
2022-10-13T20:26:25.776Z,11.20
2022-10-13T20:28:54.537Z,11.10
2022-10-13T20:31:22.933Z,11.10
2022-10-13T20:33:55.082Z,11.10
2022-10-13T20:36:24.758Z,11.10
2022-10-13T20:38:52.779Z,11.10
2022-10-13T20:41:24.876Z,11.10
2022-10-13T20:43:53.723Z,11.10
2022-10-13T20:46:21.870Z,11.00
2022-10-13T20:51:37.031Z,10.90
2022-10-13T20:54:04.245Z,10.90
2022-10-13T20:56:31.313Z,10.90
2022-10-13T20:59:03.655Z,11.00
2022-10-13T21:01:30.908Z,10.90
2022-10-13T21:03:58.481Z,10.90
2022-10-13T21:06:27.100Z,10.90
2022-10-13T21:08:54.161Z,10.90
2022-10-13T21:11:23.511Z,10.90
2022-10-13T21:13:52.361Z,11.00
2022-10-13T21:16:22.103Z,10.90
2022-10-13T21:18:50.886Z,10.80
2022-10-13T21:21:21.142Z,10.70
2022-10-13T21:23:53.706Z,10.80
2022-10-13T21:26:22.353Z,10.70
2022-10-13T21:28:50.787Z,10.60
2022-10-13T21:31:19.756Z,10.50
2022-10-13T21:33:47.171Z,10.50
2022-10-13T21:36:16.756Z,10.50
2022-10-13T21:38:45.798Z,10.50
2022-10-13T21:41:14.405Z,10.50
2022-10-13T21:43:41.818Z,10.40
2022-10-13T21:46:15.134Z,10.40
2022-10-13T21:48:43.926Z,10.30
2022-10-13T21:51:21.368Z,10.30
2022-10-13T21:53:50.598Z,10.30
2022-10-13T21:56:18.403Z,10.30
2022-10-13T21:58:46.324Z,10.30
2022-10-13T22:01:13.926Z,10.20
2022-10-13T22:03:41.864Z,10.30
2022-10-13T22:06:17.503Z,10.20
2022-10-13T22:08:47.826Z,10.20
2022-10-13T22:11:20.626Z,10.20
2022-10-13T22:13:47.720Z,10.10
2022-10-13T22:16:17.674Z,9.90
2022-10-13T22:18:45.336Z,9.90
2022-10-13T22:21:16.503Z,9.90
2022-10-13T22:23:44.319Z,9.80
2022-10-13T22:26:12.382Z,9.90
2022-10-13T22:28:40.033Z,9.80
2022-10-13T22:31:10.053Z,9.80
2022-10-13T22:33:39.099Z,9.70
2022-10-13T22:36:08.992Z,9.60
2022-10-13T22:38:36.263Z,9.50
2022-10-13T22:41:05.623Z,9.50
2022-10-13T22:43:33.119Z,9.50
2022-10-13T22:46:12.324Z,9.40
2022-10-13T22:48:41.139Z,9.40
2022-10-13T22:51:15.103Z,9.40
2022-10-13T22:53:42.254Z,9.50
2022-10-13T22:56:12.783Z,9.60
2022-10-13T22:58:40.266Z,9.60
2022-10-13T23:01:11.405Z,9.50
2022-10-13T23:03:39.493Z,9.50
2022-10-13T23:06:08.178Z,9.50
2022-10-13T23:08:35.516Z,9.50
2022-10-13T23:11:02.666Z,9.60
2022-10-13T23:13:29.706Z,9.60
2022-10-13T23:16:08.557Z,9.50
2022-10-13T23:18:38.592Z,9.40
2022-10-13T23:21:08.003Z,9.40
2022-10-13T23:23:35.385Z,9.50
2022-10-13T23:26:04.582Z,9.40
2022-10-13T23:28:32.859Z,9.30
2022-10-13T23:31:06.752Z,9.40
2022-10-13T23:33:34.469Z,9.40
2022-10-13T23:36:02.765Z,9.40
2022-10-13T23:38:31.250Z,9.30
2022-10-13T23:41:09.350Z,9.20
2022-10-13T23:43:36.719Z,9.20
2022-10-13T23:46:03.933Z,9.20
2022-10-13T23:48:31.152Z,9.10
2022-10-13T23:50:58.247Z,9.10
2022-10-13T23:53:25.354Z,9.00
2022-10-13T23:55:52.505Z,9.00
2022-10-13T23:58:25.887Z,9.10
